Orsola Bottiglieri — ICQN — position and weather

sailwx.info

Track history (hours):
 
Tides and Currents Weather Stations Pressure Air Temp Water Temp Dewpoint Dewpoint Depression Visibility Wind Speed Wind Dir Waves Ship Positions

Orsola Bottiglieri

Last reported at 2017-Oct-06 03:06 UTC. Time now 2017-Oct-18 22:25 UTC.
Position N 01°15' E 103°57'.
Warning: this ship's position is 12 days out of date.

Length 292 m; draft 17.7 m.

Type: Cargo ship. MMSI: 247304400.

Date/timePositionNaut miles runAvg speedWind from/ knotsBaromVisibWave heightAir tempDewpointWater temp
2017-Oct-06 03:06N 01°15' E 103°57'0 2.7
2017-Oct-06 03:00N 01°15' E 103°57'1 1.8
2017-Oct-06 02:30N 01°16' E 103°57'0 0.8
2017-Oct-06 02:00N 01°16' E 103°56'0 0.1
2017-Oct-06 01:30N 01°16' E 103°56'0 0.0
2017-Oct-06 00:57N 01°16' E 103°56'0 0.0
2017-Oct-06 00:23N 01°16' E 103°56'0 0.0
2017-Oct-06 00:00N 01°16' E 103°56'0 0.0
2017-Oct-05 22:33N 01°16' E 103°56'0 0.0
2017-Oct-05 22:22N 01°16' E 103°56'0 0.1
2017-Oct-05 20:51N 01°16' E 103°56'0 0.1
2017-Oct-05 20:18N 01°16' E 103°56'0 0.1
2017-Oct-05 19:56N 01°16' E 103°56'0 0.1
2017-Oct-05 19:00N 01°16' E 103°56'0 0.1
2017-Oct-05 18:14N 01°16' E 103°56'0 0.1
2017-Oct-05 17:42N 01°16' E 103°57'3 1.4
2017-Oct-05 15:30N 01°14' E 103°58'3 5.1
2017-Oct-05 14:53N 01°16' E 103°56'0 0.1
2017-Oct-05 14:15N 01°16' E 103°56'0 0.8
2017-Oct-05 14:00N 01°16' E 103°56'0 0.2
2017-Oct-05 13:29N 01°16' E 103°56'0 0.3
2017-Oct-05 13:00N 01°16' E 103°56'0 0.4
2017-Oct-05 12:30N 01°16' E 103°56'0 0.7
2017-Oct-05 11:57N 01°16' E 103°56'1 1.6
2017-Oct-05 11:30N 01°15' E 103°57'1 1.4
2017-Oct-05 11:00N 01°16' E 103°56'1 2.4
2017-Oct-05 10:29N 01°15' E 103°57'0 1.0
2017-Oct-05 10:00N 01°15' E 103°57'1 1.2
2017-Oct-05 09:30N 01°14' E 103°57'2 3.9
2017-Oct-05 09:00N 01°16' E 103°56'0 0.1
2017-Oct-05 08:03N 01°16' E 103°57'0 0.1
2017-Oct-05 07:45N 01°16' E 103°57'0 0.0
2017-Oct-05 07:21N 01°16' E 103°57'0 0.0
2017-Oct-05 06:39N 01°16' E 103°57'0 0.0
2017-Oct-05 06:30N 01°16' E 103°57'0 0.1
2017-Oct-05 05:54N 01°16' E 103°56'0 0.2
2017-Oct-05 05:12N 01°16' E 103°56'0 0.3
2017-Oct-05 04:54N 01°16' E 103°56'0 0.2
2017-Oct-05 04:24N 01°16' E 103°56'0 0.0
2017-Oct-05 03:42N 01°16' E 103°56'0 0.3
2017-Oct-05 03:30N 01°16' E 103°56'0 0.1
2017-Oct-05 02:36N 01°16' E 103°56'0 0.6
2017-Oct-05 02:30N 01°16' E 103°56'0 0.1
2017-Oct-05 01:57N 01°16' E 103°56'0 0.5
2017-Oct-05 01:30N 01°16' E 103°56'1 1.7
2017-Oct-05 01:00N 01°15' E 103°57'2 3.4
2017-Oct-05 00:30N 01°14' E 103°56'3 5.3
2017-Oct-05 00:00N 01°13' E 103°54'3 6.2
2017-Oct-04 23:30N 01°11' E 103°51'4 7.5
2017-Oct-04 23:00N 01°10' E 103°48'4 8.7
2017-Oct-04 22:30N 01°07' E 103°45'611.2
2017-Oct-04 22:00N 01°04' E 103°40'5 9.7
2017-Oct-04 21:30N 01°05' E 103°35'510.4
2017-Oct-04 21:00N 01°08' E 103°31'5 9.8
2017-Oct-04 20:30N 01°10' E 103°26'510.4
2017-Oct-04 20:00N 01°13' E 103°22'  
Track history (hours):
 
Tides and Currents Weather Stations Pressure Air Temp Water Temp Dewpoint Dewpoint Depression Visibility Wind Speed Wind Dir Waves Ship Positions

Orsola Bottiglieri

Last reported at 2017-Oct-06 03:06 UTC. Time now 2017-Oct-18 22:25 UTC.
Position N 01°15' E 103°57'.
Warning: this ship's position is 12 days out of date.

Length 292 m; draft 17.7 m.

Type: Cargo ship. MMSI: 247304400.

Date/timePositionNaut miles runAvg speedWind from/ knotsBaromVisibWave heightAir tempDewpointWater temp
2017-Oct-06 03:06N 01°15' E 103°57'0 2.7
2017-Oct-06 03:00N 01°15' E 103°57'1 1.8
2017-Oct-06 02:30N 01°16' E 103°57'0 0.8
2017-Oct-06 02:00N 01°16' E 103°56'0 0.1
2017-Oct-06 01:30N 01°16' E 103°56'0 0.0
2017-Oct-06 00:57N 01°16' E 103°56'0 0.0
2017-Oct-06 00:23N 01°16' E 103°56'0 0.0
2017-Oct-06 00:00N 01°16' E 103°56'0 0.0
2017-Oct-05 22:33N 01°16' E 103°56'0 0.0
2017-Oct-05 22:22N 01°16' E 103°56'0 0.1
2017-Oct-05 20:51N 01°16' E 103°56'0 0.1
2017-Oct-05 20:18N 01°16' E 103°56'0 0.1
2017-Oct-05 19:56N 01°16' E 103°56'0 0.1
2017-Oct-05 19:00N 01°16' E 103°56'0 0.1
2017-Oct-05 18:14N 01°16' E 103°56'0 0.1
2017-Oct-05 17:42N 01°16' E 103°57'3 1.4
2017-Oct-05 15:30N 01°14' E 103°58'3 5.1
2017-Oct-05 14:53N 01°16' E 103°56'0 0.1
2017-Oct-05 14:15N 01°16' E 103°56'0 0.8
2017-Oct-05 14:00N 01°16' E 103°56'0 0.2
2017-Oct-05 13:29N 01°16' E 103°56'0 0.3
2017-Oct-05 13:00N 01°16' E 103°56'0 0.4
2017-Oct-05 12:30N 01°16' E 103°56'0 0.7
2017-Oct-05 11:57N 01°16' E 103°56'1 1.6
2017-Oct-05 11:30N 01°15' E 103°57'1 1.4
2017-Oct-05 11:00N 01°16' E 103°56'1 2.4
2017-Oct-05 10:29N 01°15' E 103°57'0 1.0
2017-Oct-05 10:00N 01°15' E 103°57'1 1.2
2017-Oct-05 09:30N 01°14' E 103°57'2 3.9
2017-Oct-05 09:00N 01°16' E 103°56'0 0.1
2017-Oct-05 08:03N 01°16' E 103°57'0 0.1
2017-Oct-05 07:45N 01°16' E 103°57'0 0.0
2017-Oct-05 07:21N 01°16' E 103°57'0 0.0
2017-Oct-05 06:39N 01°16' E 103°57'0 0.0
2017-Oct-05 06:30N 01°16' E 103°57'0 0.1
2017-Oct-05 05:54N 01°16' E 103°56'0 0.2
2017-Oct-05 05:12N 01°16' E 103°56'0 0.3
2017-Oct-05 04:54N 01°16' E 103°56'0 0.2
2017-Oct-05 04:24N 01°16' E 103°56'0 0.0
2017-Oct-05 03:42N 01°16' E 103°56'0 0.3
2017-Oct-05 03:30N 01°16' E 103°56'0 0.1
2017-Oct-05 02:36N 01°16' E 103°56'0 0.6
2017-Oct-05 02:30N 01°16' E 103°56'0 0.1
2017-Oct-05 01:57N 01°16' E 103°56'0 0.5
2017-Oct-05 01:30N 01°16' E 103°56'1 1.7
2017-Oct-05 01:00N 01°15' E 103°57'2 3.4
2017-Oct-05 00:30N 01°14' E 103°56'3 5.3
2017-Oct-05 00:00N 01°13' E 103°54'3 6.2
2017-Oct-04 23:30N 01°11' E 103°51'4 7.5
2017-Oct-04 23:00N 01°10' E 103°48'4 8.7
2017-Oct-04 22:30N 01°07' E 103°45'611.2
2017-Oct-04 22:00N 01°04' E 103°40'5 9.7
2017-Oct-04 21:30N 01°05' E 103°35'510.4
2017-Oct-04 21:00N 01°08' E 103°31'5 9.8
2017-Oct-04 20:30N 01°10' E 103°26'510.4
2017-Oct-04 20:00N 01°13' E 103°22'  

Dump ship's entire track history